createdAt,value
2022-12-25T00:01:13.209Z,101458.56
2022-12-25T00:03:40.182Z,101450.69
2022-12-25T00:06:07.072Z,101457.50
2022-12-25T00:08:34.204Z,101462.59
2022-12-25T00:11:06.282Z,101451.22
2022-12-25T00:13:33.579Z,101454.56
2022-12-25T00:16:00.644Z,101453.56
2022-12-25T00:18:27.018Z,101448.25
2022-12-25T00:21:02.008Z,101456.97
2022-12-25T00:23:28.899Z,101441.19
2022-12-25T00:25:56.665Z,101441.91
2022-12-25T00:28:24.177Z,101442.66
2022-12-25T00:30:51.368Z,101448.56
2022-12-25T00:33:19.172Z,101447.59
2022-12-25T00:35:56.322Z,101439.69
2022-12-25T00:38:22.790Z,101436.25
2022-12-25T00:40:49.222Z,101446.56
2022-12-25T00:43:15.729Z,101436.16
2022-12-25T00:45:42.221Z,101436.09
2022-12-25T00:48:09.038Z,101444.72
2022-12-25T00:50:38.615Z,101446.38
2022-12-25T00:53:05.126Z,101443.75
2022-12-25T00:55:31.643Z,101450.63
2022-12-25T00:57:58.943Z,101448.84
2022-12-25T01:00:25.367Z,101455.72
2022-12-25T01:02:51.879Z,101453.94
2022-12-25T01:05:18.507Z,101451.25
2022-12-25T01:07:44.929Z,101448.63
2022-12-25T01:10:23.504Z,101448.63
2022-12-25T01:12:51.453Z,101450.19
2022-12-25T01:15:18.612Z,101450.19
2022-12-25T01:17:45.534Z,101460.53
2022-12-25T01:20:14.605Z,101463.09
2022-12-25T01:22:41.108Z,101464.69
2022-12-25T01:25:09.079Z,101462.06
2022-12-25T01:27:35.681Z,101461.94
2022-12-25T01:30:02.321Z,101461.84
2022-12-25T01:32:28.805Z,101461.84
2022-12-25T01:34:56.365Z,101470.41
2022-12-25T01:37:24.694Z,101472.13
2022-12-25T01:39:51.409Z,101465.19
2022-12-25T01:42:20.124Z,101465.19
2022-12-25T01:44:46.444Z,101449.72
2022-12-25T01:47:15.013Z,101449.72
2022-12-25T01:49:45.197Z,101456.63
2022-12-25T01:52:18.825Z,101441.97
2022-12-25T01:54:57.461Z,101448.97
2022-12-25T01:57:28.299Z,101460.38
2022-12-25T01:59:57.711Z,101463.94
2022-12-25T02:02:25.297Z,101460.59
2022-12-25T02:05:14.260Z,101469.44
2022-12-25T02:07:42.791Z,101469.53
2022-12-25T02:10:11.123Z,101463.53
2022-12-25T02:12:38.582Z,101463.66
2022-12-25T02:15:11.985Z,101456.91
2022-12-25T02:17:53.405Z,101452.69
2022-12-25T02:20:25.815Z,101459.78
2022-12-25T02:23:03.688Z,101465.09
2022-12-25T02:25:53.299Z,101458.22
2022-12-25T02:28:45.642Z,101453.94
2022-12-25T02:31:17.177Z,101448.66
2022-12-25T02:34:03.217Z,101454.69
2022-12-25T02:36:41.007Z,101451.22
2022-12-25T02:39:55.690Z,101455.28
2022-12-25T02:42:52.543Z,101465.59
2022-12-25T02:46:06.075Z,101460.38
2022-12-25T02:48:55.189Z,101456.16
2022-12-25T02:51:44.840Z,101448.47
2022-12-25T02:54:33.204Z,101445.00
2022-12-25T02:57:21.853Z,101445.72
2022-12-25T03:00:09.812Z,101439.44
2022-12-25T03:03:15.866Z,101440.13
2022-12-25T03:06:02.290Z,101424.41
2022-12-25T03:08:34.728Z,101408.69
2022-12-25T03:11:27.451Z,101409.53
2022-12-25T03:14:18.976Z,101397.47
2022-12-25T03:16:53.525Z,101395.72
2022-12-25T03:19:43.306Z,101389.56
2022-12-25T03:22:42.773Z,101391.00
2022-12-25T03:25:28.874Z,101385.69
2022-12-25T03:27:57.708Z,101380.31
2022-12-25T03:30:50.002Z,101392.34
2022-12-25T03:33:44.311Z,101399.16
2022-12-25T03:37:05.684Z,101396.47
2022-12-25T03:40:01.129Z,101390.31
2022-12-25T03:42:42.010Z,101393.66
2022-12-25T03:45:38.332Z,101390.94
2022-12-25T03:48:12.818Z,101385.69
2022-12-25T03:51:08.506Z,101402.88
2022-12-25T03:54:03.399Z,101400.19
2022-12-25T03:56:50.248Z,101395.91
2022-12-25T03:59:39.799Z,101399.44
2022-12-25T04:02:25.823Z,101396.84
2022-12-25T04:05:10.588Z,101392.66
2022-12-25T04:07:55.980Z,101380.53
2022-12-25T04:10:40.907Z,101377.41
2022-12-25T04:13:26.312Z,101375.97
2022-12-25T04:16:12.113Z,101377.88
2022-12-25T04:18:57.440Z,101373.59
2022-12-25T04:21:43.552Z,101377.03
2022-12-25T04:24:29.067Z,101383.09
2022-12-25T04:27:14.346Z,101387.53
2022-12-25T04:29:59.568Z,101384.03
2022-12-25T04:32:44.579Z,101397.13
2022-12-25T04:35:30.610Z,101403.25
2022-12-25T04:37:57.226Z,101396.44
2022-12-25T04:40:23.677Z,101387.88
2022-12-25T04:42:51.408Z,101386.28
2022-12-25T04:45:18.109Z,101389.00
2022-12-25T04:47:44.582Z,101389.06
2022-12-25T04:50:11.451Z,101397.78
2022-12-25T04:52:40.080Z,101389.16
2022-12-25T04:55:08.192Z,101378.03
2022-12-25T04:57:35.271Z,101379.88
2022-12-25T05:00:01.814Z,101381.56
2022-12-25T05:02:28.628Z,101374.72
2022-12-25T05:04:55.253Z,101363.41
2022-12-25T05:07:22.712Z,101365.16
2022-12-25T05:09:49.120Z,101362.53
2022-12-25T05:12:15.597Z,101369.63
2022-12-25T05:14:42.783Z,101373.06
2022-12-25T05:17:09.244Z,101366.97
2022-12-25T05:19:35.709Z,101358.38
2022-12-25T05:22:02.207Z,101354.00
2022-12-25T05:24:28.875Z,101345.38
2022-12-25T05:26:55.382Z,101345.38
2022-12-25T05:29:22.013Z,101341.84
2022-12-25T05:31:48.556Z,101346.22
2022-12-25T05:34:15.639Z,101338.50
2022-12-25T05:36:42.075Z,101334.25
2022-12-25T05:39:09.071Z,101329.03
2022-12-25T05:41:35.551Z,101327.28
2022-12-25T05:44:02.075Z,101326.41
2022-12-25T05:46:28.540Z,101328.09
2022-12-25T05:48:54.953Z,101330.69
2022-12-25T05:51:21.537Z,101328.09
2022-12-25T05:53:48.107Z,101332.44
2022-12-25T05:56:14.603Z,101331.59
2022-12-25T05:58:41.494Z,101330.59
2022-12-25T06:01:18.629Z,101340.91
2022-12-25T06:03:45.256Z,101335.69
2022-12-25T06:06:12.321Z,101332.94
2022-12-25T06:08:39.045Z,101326.81
2022-12-25T06:11:07.186Z,101325.00
2022-12-25T06:13:35.059Z,101320.69
2022-12-25T06:16:10.238Z,101305.16
2022-12-25T06:18:38.927Z,101312.91
2022-12-25T06:21:09.877Z,101303.34
2022-12-25T06:23:37.813Z,101301.56
2022-12-25T06:26:10.452Z,101306.72
2022-12-25T06:28:37.877Z,101314.47
2022-12-25T06:31:09.119Z,101315.19
2022-12-25T06:33:36.663Z,101309.88
2022-12-25T06:36:07.412Z,101307.94
2022-12-25T06:38:33.907Z,101312.94
2022-12-25T06:41:10.634Z,101312.84
2022-12-25T06:43:37.819Z,101297.94
2022-12-25T06:46:09.944Z,101286.56
2022-12-25T06:48:37.247Z,101281.25
2022-12-25T06:51:04.767Z,101279.44
2022-12-25T06:53:40.369Z,101291.53
2022-12-25T06:56:15.623Z,101297.44
2022-12-25T06:58:47.704Z,101288.69
2022-12-25T07:01:23.959Z,101279.94
2022-12-25T07:03:54.579Z,101268.63
2022-12-25T07:06:20.994Z,101265.13
2022-12-25T07:08:51.379Z,101268.50
2022-12-25T07:11:18.888Z,101271.09
2022-12-25T07:13:49.783Z,101275.25
2022-12-25T07:16:16.518Z,101276.13
2022-12-25T07:18:43.437Z,101281.25
2022-12-25T07:21:29.239Z,101276.03
2022-12-25T07:23:55.924Z,101285.53
2022-12-25T07:26:22.477Z,101297.66
2022-12-25T07:28:49.079Z,101291.53
2022-12-25T07:31:17.598Z,101287.97
2022-12-25T07:33:45.056Z,101300.06
2022-12-25T07:36:12.797Z,101301.75
2022-12-25T07:38:40.538Z,101297.38
2022-12-25T07:41:13.238Z,101286.78
2022-12-25T07:52:39.490Z,101312.88
2022-12-25T07:55:10.378Z,101318.09
2022-12-25T07:57:36.927Z,101315.47
2022-12-25T08:00:05.550Z,101312.88
2022-12-25T08:02:32.451Z,101305.06
2022-12-25T08:05:00.182Z,101312.88
2022-12-25T08:07:27.259Z,101318.88
2022-12-25T08:09:53.726Z,101309.38
2022-12-25T08:12:20.175Z,101320.66
2022-12-25T08:14:46.670Z,101321.50
2022-12-25T08:17:13.200Z,101326.69
2022-12-25T08:19:39.801Z,101327.53
2022-12-25T08:22:06.359Z,101335.31
2022-12-25T08:24:33.301Z,101343.88
2022-12-25T08:26:59.803Z,101338.66
2022-12-25T08:29:28.841Z,101335.22
2022-12-25T08:31:55.801Z,101331.66
2022-12-25T08:34:23.481Z,101336.00
2022-12-25T08:36:49.981Z,101326.38
2022-12-25T08:39:16.688Z,101327.19
2022-12-25T08:41:43.262Z,101333.34
2022-12-25T08:44:12.174Z,101327.16
2022-12-25T08:46:46.259Z,101311.59
2022-12-25T08:49:12.907Z,101307.16
2022-12-25T08:51:40.279Z,101300.19
2022-12-25T08:54:07.188Z,101298.38
2022-12-25T08:56:33.725Z,101300.84
2022-12-25T08:59:00.568Z,101309.50
2022-12-25T09:01:27.733Z,101305.16
2022-12-25T09:03:55.174Z,101291.28
2022-12-25T09:06:21.830Z,101301.63
2022-12-25T09:08:49.868Z,101305.03
2022-12-25T09:11:18.646Z,101298.88
2022-12-25T09:13:47.270Z,101285.81
2022-12-25T09:16:17.424Z,101302.19
2022-12-25T09:18:55.832Z,101303.00
2022-12-25T09:21:26.698Z,101314.22
2022-12-25T09:23:53.099Z,101312.38
2022-12-25T09:26:20.315Z,101304.53
2022-12-25T09:28:51.861Z,101309.63
2022-12-25T09:31:20.187Z,101314.84
2022-12-25T09:33:46.717Z,101316.53
2022-12-25T09:36:13.312Z,101319.06
2022-12-25T09:38:40.155Z,101339.00
2022-12-25T09:41:33.259Z,101332.88
2022-12-25T09:44:08.084Z,101327.59
2022-12-25T09:46:50.088Z,101308.53
2022-12-25T09:49:55.700Z,101303.31
2022-12-25T09:52:30.534Z,101298.03
2022-12-25T09:55:13.397Z,101297.97
2022-12-25T09:57:42.974Z,101304.88
2022-12-25T10:00:19.627Z,101302.25
2022-12-25T10:03:11.428Z,101293.59
2022-12-25T10:05:37.919Z,101284.94
2022-12-25T10:08:28.729Z,101281.47
2022-12-25T10:11:04.209Z,101288.38
2022-12-25T10:13:33.682Z,101305.69
2022-12-25T10:16:22.057Z,101286.69
2022-12-25T10:19:34.664Z,101277.19
2022-12-25T10:22:09.069Z,101276.25
2022-12-25T10:24:48.817Z,101272.75
2022-12-25T10:27:40.721Z,101276.25
2022-12-25T10:30:19.672Z,101274.44
2022-12-25T10:36:20.517Z,101264.84
2022-12-25T10:38:47.930Z,101262.97
2022-12-25T10:41:36.336Z,101261.19
2022-12-25T10:44:15.002Z,101265.56
2022-12-25T10:46:47.419Z,101252.41
2022-12-25T10:49:16.794Z,101253.25
2022-12-25T10:51:43.523Z,101249.78
2022-12-25T10:54:31.391Z,101236.00
2022-12-25T10:57:02.151Z,101229.09
2022-12-25T11:00:04.055Z,101221.28
2022-12-25T11:06:03.065Z,101214.16
2022-12-25T11:08:33.167Z,101210.66
2022-12-25T11:11:12.232Z,101199.22
2022-12-25T11:16:49.135Z,101189.59
2022-12-25T11:19:35.911Z,101190.50
2022-12-25T11:22:03.858Z,101186.19
2022-12-25T11:24:33.187Z,101178.38
2022-12-25T11:27:02.352Z,101177.47
2022-12-25T11:29:43.963Z,101170.41
2022-12-25T11:32:22.502Z,101178.09
2022-12-25T11:34:51.171Z,101156.19
2022-12-25T11:37:27.483Z,101141.31
2022-12-25T11:39:55.341Z,101143.00
2022-12-25T11:42:37.572Z,101134.06
2022-12-25T11:45:15.482Z,101119.06
2022-12-25T11:48:07.241Z,101131.00
2022-12-25T11:50:42.783Z,101127.34
2022-12-25T11:53:21.439Z,101124.63
2022-12-25T11:55:55.777Z,101122.91
2022-12-25T11:58:40.912Z,101126.34
2022-12-25T12:01:29.804Z,101133.09
2022-12-25T12:03:59.505Z,101135.69
2022-12-25T12:06:26.866Z,101135.16
2022-12-25T12:09:01.467Z,101126.63
2022-12-25T12:11:38.931Z,101124.88
2022-12-25T12:14:43.043Z,101133.38
2022-12-25T12:17:14.641Z,101132.53
2022-12-25T12:19:41.248Z,101118.66
2022-12-25T12:22:39.666Z,101113.38
2022-12-25T12:25:07.941Z,101112.53
2022-12-25T12:27:40.755Z,101110.69
2022-12-25T12:30:24.119Z,101102.09
2022-12-25T12:32:56.073Z,101104.56
2022-12-25T12:35:30.527Z,101100.28
2022-12-25T12:38:24.551Z,101092.50
2022-12-25T12:40:55.356Z,101090.00
2022-12-25T12:43:58.898Z,101086.59
2022-12-25T12:46:31.290Z,101078.03
2022-12-25T12:49:21.706Z,101084.00
2022-12-25T12:51:49.411Z,101086.59
2022-12-25T12:54:20.912Z,101090.97
2022-12-25T12:57:21.266Z,101093.69
2022-12-25T12:59:48.023Z,101089.44
2022-12-25T13:02:55.598Z,101098.09
2022-12-25T13:05:34.720Z,101083.41
2022-12-25T13:08:10.513Z,101079.84
2022-12-25T13:10:46.615Z,101070.34
2022-12-25T13:13:23.109Z,101060.81
2022-12-25T13:15:56.049Z,101057.38
2022-12-25T13:18:25.825Z,101053.09
2022-12-25T13:21:05.662Z,101040.16
2022-12-25T13:23:34.788Z,101041.84
2022-12-25T13:26:17.482Z,101040.84
2022-12-25T13:28:47.085Z,101039.97
2022-12-25T13:31:13.746Z,101040.84
2022-12-25T13:33:51.925Z,101035.53
2022-12-25T13:36:19.114Z,101031.25
2022-12-25T13:38:52.360Z,101022.66
2022-12-25T13:41:39.895Z,101026.09
2022-12-25T13:44:22.451Z,101021.81
2022-12-25T13:46:48.970Z,101016.69
2022-12-25T13:49:17.252Z,101019.31
2022-12-25T13:51:44.556Z,101026.19
2022-12-25T13:54:13.642Z,101035.69
2022-12-25T13:56:53.831Z,101022.66
2022-12-25T13:59:23.762Z,101020.06
2022-12-25T14:01:52.112Z,101020.88
2022-12-25T14:04:28.121Z,101017.44
2022-12-25T14:06:54.606Z,101019.31
2022-12-25T14:09:22.094Z,101020.06
2022-12-25T14:11:55.257Z,101012.16
2022-12-25T14:14:26.372Z,101007.78
2022-12-25T14:16:57.778Z,101016.50
2022-12-25T14:19:33.007Z,101019.13
2022-12-25T14:22:11.047Z,101019.22
2022-12-25T14:24:39.652Z,101019.13
2022-12-25T14:27:16.986Z,101020.13
2022-12-25T14:29:45.633Z,101019.31
2022-12-25T14:32:18.849Z,101014.94
2022-12-25T14:34:47.301Z,101014.09
2022-12-25T14:37:18.370Z,101019.22
2022-12-25T14:39:47.594Z,101014.09
2022-12-25T14:42:21.866Z,101003.47
2022-12-25T14:45:26.557Z,100992.38
2022-12-25T14:47:59.780Z,100987.25
2022-12-25T14:50:38.628Z,100991.63
2022-12-25T14:53:16.749Z,100986.31
2022-12-25T14:55:48.328Z,100985.47
2022-12-25T14:58:25.323Z,100999.34
2022-12-25T15:01:01.581Z,100992.38
2022-12-25T15:03:35.578Z,100993.25
2022-12-25T15:06:32.226Z,100999.19
2022-12-25T15:09:12.783Z,101006.28
2022-12-25T15:11:39.207Z,101003.66
2022-12-25T15:14:05.872Z,100998.44
2022-12-25T15:16:41.808Z,100995.84
2022-12-25T15:19:10.401Z,101005.50
2022-12-25T15:21:37.530Z,101014.16
2022-12-25T15:24:04.559Z,101014.09
2022-12-25T15:26:32.261Z,101004.56
2022-12-25T15:28:58.883Z,101001.06
2022-12-25T15:31:30.851Z,101008.88
2022-12-25T15:34:00.518Z,101001.94
2022-12-25T15:36:27.569Z,101001.13
2022-12-25T15:38:54.951Z,101008.88
2022-12-25T15:41:53.481Z,101003.66
2022-12-25T15:44:20.335Z,100994.06
2022-12-25T15:46:46.953Z,100991.47
2022-12-25T15:49:14.603Z,100980.94
2022-12-25T15:51:41.872Z,100982.81
2022-12-25T15:54:08.599Z,100987.16
2022-12-25T15:57:05.375Z,100983.72
2022-12-25T15:59:32.301Z,100980.25
2022-12-25T16:02:01.069Z,100969.16
2022-12-25T16:04:31.269Z,100970.09
2022-12-25T16:07:02.499Z,100951.00
2022-12-25T16:09:28.934Z,100955.34
2022-12-25T16:11:55.308Z,100971.84
2022-12-25T16:14:21.949Z,100981.41
2022-12-25T16:16:48.432Z,100979.72
2022-12-25T16:19:15.107Z,100988.47
2022-12-25T16:21:44.676Z,100991.13
2022-12-25T16:24:11.344Z,100980.72
2022-12-25T16:26:37.783Z,100986.75
2022-12-25T16:29:07.174Z,100987.63
2022-12-25T16:31:34.862Z,100976.34
2022-12-25T16:34:01.583Z,100974.50
2022-12-25T16:36:28.084Z,100964.94
2022-12-25T16:38:54.506Z,100964.94
2022-12-25T16:41:21.817Z,100958.09
2022-12-25T16:43:48.293Z,100962.47
2022-12-25T16:46:18.097Z,100942.66
2022-12-25T16:48:45.304Z,100939.25
2022-12-25T16:51:16.982Z,100937.50
2022-12-25T16:53:43.483Z,100948.75
2022-12-25T16:56:12.435Z,100946.00
2022-12-25T16:58:38.823Z,100948.53
2022-12-25T17:01:10.852Z,100949.44
2022-12-25T17:03:38.232Z,100945.06
2022-12-25T17:06:12.211Z,100943.25
2022-12-25T17:08:38.637Z,100951.16
2022-12-25T17:11:05.945Z,100940.03
2022-12-25T17:13:32.328Z,100937.44
2022-12-25T17:15:59.031Z,100941.88
2022-12-25T17:18:25.649Z,100944.47
2022-12-25T17:20:53.481Z,100932.97
2022-12-25T17:23:20.721Z,100944.16
2022-12-25T17:25:47.149Z,100951.22
2022-12-25T17:28:13.817Z,100950.53
2022-12-25T17:30:40.236Z,100945.31
2022-12-25T17:33:06.607Z,100946.16
2022-12-25T17:35:36.131Z,100953.06
2022-12-25T17:38:02.634Z,100947.00
2022-12-25T17:40:29.811Z,100944.38
2022-12-25T17:42:56.301Z,100937.44
2022-12-25T17:45:22.700Z,100939.00
2022-12-25T17:47:49.175Z,100945.94
2022-12-25T17:50:15.717Z,100947.66
2022-12-25T17:52:42.342Z,100946.16
2022-12-25T17:55:09.218Z,100961.03
2022-12-25T17:57:35.621Z,100953.28
2022-12-25T18:00:02.051Z,100953.22
2022-12-25T18:02:29.870Z,100959.19
2022-12-25T18:04:56.963Z,100948.91
2022-12-25T18:07:23.478Z,100942.94
2022-12-25T18:09:49.880Z,100941.19
2022-12-25T18:12:16.259Z,100930.06
2022-12-25T18:14:42.772Z,100926.69
2022-12-25T18:17:09.442Z,100928.41
2022-12-25T18:19:35.841Z,100935.44
2022-12-25T18:22:02.233Z,100924.91
2022-12-25T18:24:28.604Z,100931.91
2022-12-25T18:26:55.016Z,100918.97
2022-12-25T18:29:21.421Z,100927.53
2022-12-25T18:31:47.964Z,100937.09
2022-12-25T18:34:14.675Z,100937.19
2022-12-25T18:36:41.246Z,100944.94
2022-12-25T18:39:07.994Z,100938.81
2022-12-25T18:41:54.394Z,100938.81
2022-12-25T18:44:20.809Z,100938.81
2022-12-25T18:46:47.227Z,100945.72
2022-12-25T18:49:13.659Z,100952.00
2022-12-25T18:51:41.056Z,100954.59
2022-12-25T18:54:07.480Z,100950.28
2022-12-25T18:56:33.914Z,100946.94
2022-12-25T18:59:00.719Z,100942.56
2022-12-25T19:01:27.219Z,100936.41
2022-12-25T19:04:00.086Z,100943.31
2022-12-25T19:06:33.134Z,100924.16
2022-12-25T19:08:59.599Z,100930.22
2022-12-25T19:11:26.059Z,100931.84
2022-12-25T19:13:52.482Z,100926.69
2022-12-25T19:16:18.954Z,100932.06
2022-12-25T19:18:45.547Z,100928.53
2022-12-25T19:21:12.243Z,100917.97
2022-12-25T19:23:39.135Z,100923.00
2022-12-25T19:26:07.447Z,100923.00
2022-12-25T19:28:34.912Z,100923.94
2022-12-25T19:31:01.617Z,100924.84
2022-12-25T19:33:28.262Z,100926.69
2022-12-25T19:35:59.646Z,100922.31
2022-12-25T19:38:26.153Z,100923.19
2022-12-25T19:41:01.804Z,100926.78
2022-12-25T19:43:34.433Z,100939.03
2022-12-25T19:46:01.843Z,100946.78
2022-12-25T19:48:28.819Z,100944.19
2022-12-25T19:50:55.286Z,100951.06
2022-12-25T19:53:23.693Z,100952.75
2022-12-25T19:55:52.613Z,100955.28
2022-12-25T19:58:20.244Z,100953.53
2022-12-25T20:00:59.984Z,100950.06
2022-12-25T20:03:26.873Z,100944.72
2022-12-25T20:05:53.392Z,100954.28
2022-12-25T20:08:19.998Z,100948.22
2022-12-25T20:10:46.853Z,100949.25
2022-12-25T20:13:13.297Z,100949.16
2022-12-25T20:15:39.802Z,100952.59
2022-12-25T20:18:06.281Z,100950.75
2022-12-25T20:20:33.027Z,100947.22
2022-12-25T20:22:59.598Z,100952.44
2022-12-25T20:25:26.019Z,100958.44
2022-12-25T20:27:52.454Z,100957.50
2022-12-25T20:30:18.924Z,100958.34
2022-12-25T20:32:50.408Z,100945.25
2022-12-25T20:35:17.441Z,100942.66
2022-12-25T20:37:44.075Z,100944.38
2022-12-25T20:40:11.589Z,100952.28
2022-12-25T20:42:38.083Z,100943.53
2022-12-25T20:45:06.667Z,100949.59
2022-12-25T20:47:34.283Z,100943.53
2022-12-25T20:50:01.046Z,100950.47
2022-12-25T20:52:27.587Z,100953.81
2022-12-25T20:54:53.946Z,100960.69
2022-12-25T20:57:20.335Z,100958.28
2022-12-25T20:59:46.793Z,100946.94
2022-12-25T21:02:35.634Z,100955.50
2022-12-25T21:04:59.867Z,100964.09
2022-12-25T21:07:26.241Z,100958.09
2022-12-25T21:09:52.632Z,100965.06
2022-12-25T21:12:19.034Z,100972.84
2022-12-25T21:14:45.404Z,100964.25
2022-12-25T21:17:11.849Z,100966.84
2022-12-25T21:19:38.246Z,100966.78
2022-12-25T21:22:04.694Z,100974.66
2022-12-25T21:24:31.117Z,100977.28
2022-12-25T21:26:57.521Z,100972.91
2022-12-25T21:29:25.031Z,100970.22
2022-12-25T21:32:12.281Z,100970.22
2022-12-25T21:34:38.952Z,100978.06
2022-12-25T21:37:05.795Z,100995.38
2022-12-25T21:39:32.186Z,101000.56
2022-12-25T21:41:59.443Z,101000.56
2022-12-25T21:44:26.128Z,101003.13
2022-12-25T21:46:52.573Z,100993.53
2022-12-25T21:49:38.980Z,101003.03
2022-12-25T21:52:08.261Z,101009.03
2022-12-25T21:54:35.256Z,100996.88
2022-12-25T21:57:01.748Z,101005.50
2022-12-25T21:59:28.249Z,100997.66
2022-12-25T22:01:54.794Z,101003.72
2022-12-25T22:04:22.683Z,101004.56
2022-12-25T22:07:07.774Z,100998.44
2022-12-25T22:09:34.363Z,101009.72
2022-12-25T22:12:20.350Z,101006.28
2022-12-25T22:15:02.569Z,101001.81
2022-12-25T22:17:50.632Z,101006.19
2022-12-25T22:20:34.429Z,101006.09
2022-12-25T22:23:01.108Z,101006.97
2022-12-25T22:25:27.639Z,101018.22
2022-12-25T22:27:54.348Z,101015.63
2022-12-25T22:30:31.855Z,101020.81
2022-12-25T22:32:58.366Z,101018.97
2022-12-25T22:35:24.937Z,101013.75
2022-12-25T22:37:51.437Z,100996.44
2022-12-25T22:40:19.774Z,100992.91
2022-12-25T22:42:46.717Z,100997.22
2022-12-25T22:45:13.270Z,100981.56
2022-12-25T22:47:39.775Z,100981.56
2022-12-25T22:50:07.153Z,100993.78
2022-12-25T22:52:33.599Z,101004.09
2022-12-25T22:55:00.039Z,100971.97
2022-12-25T22:57:26.586Z,100967.59
2022-12-25T22:59:53.119Z,100977.09
2022-12-25T23:02:20.458Z,100979.72
2022-12-25T23:04:47.095Z,100994.47
2022-12-25T23:07:14.571Z,101006.56
2022-12-25T23:09:42.011Z,100998.75
2022-12-25T23:12:28.957Z,100985.72
2022-12-25T23:14:56.738Z,101003.94
2022-12-25T23:17:41.603Z,100993.44
2022-12-25T23:20:43.009Z,100980.41
2022-12-25T23:23:33.906Z,100989.06
2022-12-25T23:26:09.601Z,100959.47
2022-12-25T23:29:00.696Z,100960.31
2022-12-25T23:31:33.995Z,100970.75
2022-12-25T23:34:00.783Z,100963.75
2022-12-25T23:36:27.531Z,100976.78
2022-12-25T23:38:55.201Z,100984.63
2022-12-25T23:41:21.607Z,100992.44
2022-12-25T23:43:48.087Z,101001.09
2022-12-25T23:46:15.105Z,100997.66
2022-12-25T23:48:41.805Z,101010.63
2022-12-25T23:51:12.914Z,100995.00
2022-12-25T23:53:39.893Z,100990.63
2022-12-25T23:56:06.814Z,101000.19
2022-12-25T23:58:33.330Z,101005.41
